100LL.CA
Aviation Fuel Pricing for Canadians
Please upgrade your browser - Tested with IE9, FireFox, Chrome, Safari

Fuel Prices Airport Info Airport List METAR / TAF Kneeboard RSS

Reference Airport: Golden, BC
N 51 17 57   W 116 58 56

CYGE Golden, BC
WEATHER
METARCYGE 120000Z 00000KT 20SM FEW280 M07/M10 A3061 RMK CS1 LAST STFD OBS/NEXT 121400Z SLP422
REF N 51 17 57  W 116 58 56    Adj W    16E (2013)
UTC-7(6)    Elev 2575    A5005 LO2 CAP RCAP
OPR Town 250-344-2271/6017
Reg
PFA-1 C-2,3,4,5,6
FLT PLN NOTAM FILE CYKA
FIC Kamloops 866-WXBRIEF (Toll free within Canada) or 866-541-4101 (Toll free within Canada & USA)
WXMETAR 14-24Z (DT12-24Z) O/T LWIS WxCam
SERVICES
FUEL100LL, JA (FSII avbl) (Opr Automated full/self serve, VISA, MasterCard, Amex, SP refuelling upon request) 250-344-2534
PRICES100LL public: 1.879; JETA: 1.320; current as of 2017-05-21.
Note: East Kootenay Fuel Sales
S4,5,6
RWY DATARwy 14(142)/32(322) 4528x75 asphalt L/R
RCREast Kootenay Fuel Sales Ltd 250-344-2534
COMM
RCOPacific rdo 122.375 (FISE) 126.7 (bcst)
MFtfc 122.8 5NM 5600 ASL
PALVancouver Ctr 132.35 (Kamloops) (may not be receivable on ground)
NAV
PRORgt hand circuits Rwy 32 (CAR 602.96), circuit hgt 4000 ASL.
CAUTIONBlasting 4NM NNW sfc to 5700 ASL ocsl by NOTAM. Blasting 7NM SE sfc to 5000 ASL. Hang gliding & para sailing all year. Deer on rwy.
Effective 0901Z 12 October 2017 to 0901Z 07 December 2017